sensor_id;sensor_type;location;lat;lon;timestamp;temperature;humidity
5796;DHT22;2924;51.458;7.046;2022-08-16T00:00:48;19.90;99.90
5796;DHT22;2924;51.458;7.046;2022-08-16T00:03:16;19.90;99.90
5796;DHT22;2924;51.458;7.046;2022-08-16T00:05:43;19.80;99.90
5796;DHT22;2924;51.458;7.046;2022-08-16T00:08:09;19.70;99.90
5796;DHT22;2924;51.458;7.046;2022-08-16T00:10:35;19.80;99.90
5796;DHT22;2924;51.458;7.046;2022-08-16T00:13:04;19.80;99.90
5796;DHT22;2924;51.458;7.046;2022-08-16T00:15:35;19.70;99.90
5796;DHT22;2924;51.458;7.046;2022-08-16T00:18:01;19.80;99.90
5796;DHT22;2924;51.458;7.046;2022-08-16T00:20:27;19.80;99.90
5796;DHT22;2924;51.458;7.046;2022-08-16T00:22:53;19.90;99.90
5796;DHT22;2924;51.458;7.046;2022-08-16T00:25:22;19.90;99.90
5796;DHT22;2924;51.458;7.046;2022-08-16T00:27:48;19.90;99.90
5796;DHT22;2924;51.458;7.046;2022-08-16T00:30:16;20.00;99.90
5796;DHT22;2924;51.458;7.046;2022-08-16T00:32:45;19.90;99.90
5796;DHT22;2924;51.458;7.046;2022-08-16T00:35:15;19.80;99.90
5796;DHT22;2924;51.458;7.046;2022-08-16T00:37:42;19.80;99.90
5796;DHT22;2924;51.458;7.046;2022-08-16T00:40:10;19.80;99.90
5796;DHT22;2924;51.458;7.046;2022-08-16T00:42:37;19.80;99.90
5796;DHT22;2924;51.458;7.046;2022-08-16T00:45:52;19.80;99.90
5796;DHT22;2924;51.458;7.046;2022-08-16T00:48:13;19.80;99.90
5796;DHT22;2924;51.458;7.046;2022-08-16T00:50:40;19.80;99.90
5796;DHT22;2924;51.458;7.046;2022-08-16T00:53:09;19.80;99.90
5796;DHT22;2924;51.458;7.046;2022-08-16T00:55:38;19.90;99.90
5796;DHT22;2924;51.458;7.046;2022-08-16T00:58:06;19.80;99.90
5796;DHT22;2924;51.458;7.046;2022-08-16T01:00:34;19.90;99.90
5796;DHT22;2924;51.458;7.046;2022-08-16T01:03:03;19.90;99.90
5796;DHT22;2924;51.458;7.046;2022-08-16T01:05:30;19.90;99.90
5796;DHT22;2924;51.458;7.046;2022-08-16T01:07:55;20.00;99.90
5796;DHT22;2924;51.458;7.046;2022-08-16T01:10:24;20.00;99.90
5796;DHT22;2924;51.458;7.046;2022-08-16T01:12:50;20.00;99.90
5796;DHT22;2924;51.458;7.046;2022-08-16T01:15:16;20.00;99.90
5796;DHT22;2924;51.458;7.046;2022-08-16T01:17:43;20.10;99.90
5796;DHT22;2924;51.458;7.046;2022-08-16T01:20:11;20.10;99.90
5796;DHT22;2924;51.458;7.046;2022-08-16T01:23:04;20.10;99.90
5796;DHT22;2924;51.458;7.046;2022-08-16T01:25:34;20.10;99.90
5796;DHT22;2924;51.458;7.046;2022-08-16T01:28:04;20.10;99.90
5796;DHT22;2924;51.458;7.046;2022-08-16T01:30:35;20.00;99.90
5796;DHT22;2924;51.458;7.046;2022-08-16T01:33:03;20.00;99.90
5796;DHT22;2924;51.458;7.046;2022-08-16T01:35:47;20.00;99.90
5796;DHT22;2924;51.458;7.046;2022-08-16T01:38:29;20.00;99.90
5796;DHT22;2924;51.458;7.046;2022-08-16T01:41:02;20.00;99.90
5796;DHT22;2924;51.458;7.046;2022-08-16T01:43:30;20.00;99.90
5796;DHT22;2924;51.458;7.046;2022-08-16T01:45:58;19.90;99.90
5796;DHT22;2924;51.458;7.046;2022-08-16T01:48:27;19.90;99.90
5796;DHT22;2924;51.458;7.046;2022-08-16T01:50:54;19.90;99.90
5796;DHT22;2924;51.458;7.046;2022-08-16T01:53:20;19.90;99.90
5796;DHT22;2924;51.458;7.046;2022-08-16T01:55:46;19.90;99.90
5796;DHT22;2924;51.458;7.046;2022-08-16T01:58:14;19.80;99.90
5796;DHT22;2924;51.458;7.046;2022-08-16T02:00:40;19.90;99.90
5796;DHT22;2924;51.458;7.046;2022-08-16T02:03:06;19.90;99.90
5796;DHT22;2924;51.458;7.046;2022-08-16T02:05:32;19.80;99.90
5796;DHT22;2924;51.458;7.046;2022-08-16T02:07:58;19.90;99.90
5796;DHT22;2924;51.458;7.046;2022-08-16T02:10:24;19.80;99.90
5796;DHT22;2924;51.458;7.046;2022-08-16T02:12:50;19.80;99.90
5796;DHT22;2924;51.458;7.046;2022-08-16T02:15:19;19.80;99.90
5796;DHT22;2924;51.458;7.046;2022-08-16T02:17:45;19.80;99.90
5796;DHT22;2924;51.458;7.046;2022-08-16T02:20:11;19.70;99.90
5796;DHT22;2924;51.458;7.046;2022-08-16T02:22:37;19.80;99.90
5796;DHT22;2924;51.458;7.046;2022-08-16T02:25:09;19.70;99.90
5796;DHT22;2924;51.458;7.046;2022-08-16T02:27:35;19.70;99.90
5796;DHT22;2924;51.458;7.046;2022-08-16T02:30:02;19.60;99.90
5796;DHT22;2924;51.458;7.046;2022-08-16T02:32:27;19.70;99.90
5796;DHT22;2924;51.458;7.046;2022-08-16T02:34:54;19.70;99.90
5796;DHT22;2924;51.458;7.046;2022-08-16T02:37:20;19.70;99.90
5796;DHT22;2924;51.458;7.046;2022-08-16T02:39:45;19.60;99.90
5796;DHT22;2924;51.458;7.046;2022-08-16T02:42:11;19.60;99.90
5796;DHT22;2924;51.458;7.046;2022-08-16T02:44:36;19.60;99.90
5796;DHT22;2924;51.458;7.046;2022-08-16T02:47:02;19.50;99.90
5796;DHT22;2924;51.458;7.046;2022-08-16T02:49:28;19.40;99.90
5796;DHT22;2924;51.458;7.046;2022-08-16T02:51:53;19.30;99.90
5796;DHT22;2924;51.458;7.046;2022-08-16T02:54:19;19.40;99.90
5796;DHT22;2924;51.458;7.046;2022-08-16T02:56:45;19.30;99.90
5796;DHT22;2924;51.458;7.046;2022-08-16T02:59:11;19.20;99.90
5796;DHT22;2924;51.458;7.046;2022-08-16T03:01:37;19.30;99.90
5796;DHT22;2924;51.458;7.046;2022-08-16T03:04:04;19.20;99.90
5796;DHT22;2924;51.458;7.046;2022-08-16T03:06:30;19.20;99.90
5796;DHT22;2924;51.458;7.046;2022-08-16T03:08:56;19.10;99.90
5796;DHT22;2924;51.458;7.046;2022-08-16T03:11:22;19.00;99.90
5796;DHT22;2924;51.458;7.046;2022-08-16T03:13:51;19.00;99.90
5796;DHT22;2924;51.458;7.046;2022-08-16T03:16:18;19.00;99.90
5796;DHT22;2924;51.458;7.046;2022-08-16T03:18:45;18.90;99.90
5796;DHT22;2924;51.458;7.046;2022-08-16T03:21:10;18.80;99.90
5796;DHT22;2924;51.458;7.046;2022-08-16T03:23:37;18.90;99.90
5796;DHT22;2924;51.458;7.046;2022-08-16T03:26:04;18.80;99.90
5796;DHT22;2924;51.458;7.046;2022-08-16T03:28:29;18.80;99.90
5796;DHT22;2924;51.458;7.046;2022-08-16T03:30:55;18.80;99.90
5796;DHT22;2924;51.458;7.046;2022-08-16T03:33:21;18.80;99.90
5796;DHT22;2924;51.458;7.046;2022-08-16T03:35:47;18.70;99.90
5796;DHT22;2924;51.458;7.046;2022-08-16T03:38:14;18.70;99.90
5796;DHT22;2924;51.458;7.046;2022-08-16T03:40:41;18.70;99.90
5796;DHT22;2924;51.458;7.046;2022-08-16T03:43:08;18.60;99.90
5796;DHT22;2924;51.458;7.046;2022-08-16T03:45:35;18.50;99.90
5796;DHT22;2924;51.458;7.046;2022-08-16T03:48:01;18.50;99.90
5796;DHT22;2924;51.458;7.046;2022-08-16T03:50:28;18.40;99.90
5796;DHT22;2924;51.458;7.046;2022-08-16T03:52:54;18.30;99.90
5796;DHT22;2924;51.458;7.046;2022-08-16T03:55:20;18.30;99.90
5796;DHT22;2924;51.458;7.046;2022-08-16T03:57:46;18.30;99.90
5796;DHT22;2924;51.458;7.046;2022-08-16T04:00:17;18.20;99.90
5796;DHT22;2924;51.458;7.046;2022-08-16T04:02:44;18.20;99.90
5796;DHT22;2924;51.458;7.046;2022-08-16T04:05:12;18.30;99.90
5796;DHT22;2924;51.458;7.046;2022-08-16T04:07:38;18.30;99.90
5796;DHT22;2924;51.458;7.046;2022-08-16T04:10:05;18.30;99.90
5796;DHT22;2924;51.458;7.046;2022-08-16T04:12:32;18.30;99.90
5796;DHT22;2924;51.458;7.046;2022-08-16T04:14:58;18.30;99.90
5796;DHT22;2924;51.458;7.046;2022-08-16T04:17:25;18.20;99.90
5796;DHT22;2924;51.458;7.046;2022-08-16T04:19:50;18.20;99.90
5796;DHT22;2924;51.458;7.046;2022-08-16T04:22:16;18.20;99.90
5796;DHT22;2924;51.458;7.046;2022-08-16T04:24:44;18.10;99.90
5796;DHT22;2924;51.458;7.046;2022-08-16T04:27:10;18.00;99.90
5796;DHT22;2924;51.458;7.046;2022-08-16T04:29:35;18.00;99.90
5796;DHT22;2924;51.458;7.046;2022-08-16T04:32:01;18.00;99.90
5796;DHT22;2924;51.458;7.046;2022-08-16T04:34:30;18.00;99.90
5796;DHT22;2924;51.458;7.046;2022-08-16T04:36:56;18.00;99.90
5796;DHT22;2924;51.458;7.046;2022-08-16T04:39:24;17.90;99.90
5796;DHT22;2924;51.458;7.046;2022-08-16T04:41:50;18.00;99.90
5796;DHT22;2924;51.458;7.046;2022-08-16T04:44:16;18.00;99.90
5796;DHT22;2924;51.458;7.046;2022-08-16T04:46:42;18.00;99.90
5796;DHT22;2924;51.458;7.046;2022-08-16T04:49:08;18.00;99.90
5796;DHT22;2924;51.458;7.046;2022-08-16T04:51:35;18.10;99.90
5796;DHT22;2924;51.458;7.046;2022-08-16T04:54:01;18.20;99.90
5796;DHT22;2924;51.458;7.046;2022-08-16T04:56:27;18.20;99.90
5796;DHT22;2924;51.458;7.046;2022-08-16T04:58:53;18.30;99.90
5796;DHT22;2924;51.458;7.046;2022-08-16T05:01:19;18.40;99.90
5796;DHT22;2924;51.458;7.046;2022-08-16T05:03:45;18.40;99.90
5796;DHT22;2924;51.458;7.046;2022-08-16T05:06:11;18.60;99.90
5796;DHT22;2924;51.458;7.046;2022-08-16T05:08:38;18.70;99.90
5796;DHT22;2924;51.458;7.046;2022-08-16T05:11:05;18.90;99.90
5796;DHT22;2924;51.458;7.046;2022-08-16T05:13:33;19.20;99.90
5796;DHT22;2924;51.458;7.046;2022-08-16T05:15:59;19.30;99.90
5796;DHT22;2924;51.458;7.046;2022-08-16T05:18:25;19.50;99.90
5796;DHT22;2924;51.458;7.046;2022-08-16T05:20:51;19.70;99.90
5796;DHT22;2924;51.458;7.046;2022-08-16T05:23:17;19.70;99.90
5796;DHT22;2924;51.458;7.046;2022-08-16T05:25:43;19.80;99.90
5796;DHT22;2924;51.458;7.046;2022-08-16T05:28:09;20.00;99.90
5796;DHT22;2924;51.458;7.046;2022-08-16T05:30:36;20.10;99.90
5796;DHT22;2924;51.458;7.046;2022-08-16T05:33:03;20.20;99.90
5796;DHT22;2924;51.458;7.046;2022-08-16T05:35:29;20.40;99.90
5796;DHT22;2924;51.458;7.046;2022-08-16T05:37:55;20.40;99.90
5796;DHT22;2924;51.458;7.046;2022-08-16T05:40:21;20.50;99.90
5796;DHT22;2924;51.458;7.046;2022-08-16T05:42:47;20.60;99.90
5796;DHT22;2924;51.458;7.046;2022-08-16T05:45:13;20.70;99.90
5796;DHT22;2924;51.458;7.046;2022-08-16T05:47:39;20.70;99.90
5796;DHT22;2924;51.458;7.046;2022-08-16T05:50:05;20.70;99.90
5796;DHT22;2924;51.458;7.046;2022-08-16T05:52:32;20.70;99.90
5796;DHT22;2924;51.458;7.046;2022-08-16T05:54:57;20.80;99.90
5796;DHT22;2924;51.458;7.046;2022-08-16T05:57:23;20.90;99.90
5796;DHT22;2924;51.458;7.046;2022-08-16T05:59:49;20.90;99.90
5796;DHT22;2924;51.458;7.046;2022-08-16T06:02:15;21.00;99.90
5796;DHT22;2924;51.458;7.046;2022-08-16T06:04:41;21.00;99.90
5796;DHT22;2924;51.458;7.046;2022-08-16T06:07:07;21.00;99.90
5796;DHT22;2924;51.458;7.046;2022-08-16T06:09:33;21.00;99.90
5796;DHT22;2924;51.458;7.046;2022-08-16T06:11:59;21.10;99.90
5796;DHT22;2924;51.458;7.046;2022-08-16T06:14:28;21.20;99.90
5796;DHT22;2924;51.458;7.046;2022-08-16T06:16:53;21.20;99.90
5796;DHT22;2924;51.458;7.046;2022-08-16T06:19:19;21.40;99.90
5796;DHT22;2924;51.458;7.046;2022-08-16T06:21:45;21.50;99.90
5796;DHT22;2924;51.458;7.046;2022-08-16T06:24:12;21.50;99.90
5796;DHT22;2924;51.458;7.046;2022-08-16T06:26:38;21.70;99.90
5796;DHT22;2924;51.458;7.046;2022-08-16T06:29:03;21.90;99.90
5796;DHT22;2924;51.458;7.046;2022-08-16T06:31:29;22.00;99.90
5796;DHT22;2924;51.458;7.046;2022-08-16T06:33:55;22.20;99.90
5796;DHT22;2924;51.458;7.046;2022-08-16T06:36:21;22.40;99.90
5796;DHT22;2924;51.458;7.046;2022-08-16T06:38:49;22.50;99.90
5796;DHT22;2924;51.458;7.046;2022-08-16T06:41:15;22.60;99.90
5796;DHT22;2924;51.458;7.046;2022-08-16T06:43:41;22.90;99.90
5796;DHT22;2924;51.458;7.046;2022-08-16T06:46:11;23.10;99.90
5796;DHT22;2924;51.458;7.046;2022-08-16T06:48:45;23.30;99.90
5796;DHT22;2924;51.458;7.046;2022-08-16T06:51:11;23.60;99.90
5796;DHT22;2924;51.458;7.046;2022-08-16T06:53:36;23.90;99.90
5796;DHT22;2924;51.458;7.046;2022-08-16T06:56:06;24.20;99.90
5796;DHT22;2924;51.458;7.046;2022-08-16T06:58:33;24.50;99.90
5796;DHT22;2924;51.458;7.046;2022-08-16T07:01:00;25.00;99.90
5796;DHT22;2924;51.458;7.046;2022-08-16T07:03:26;25.20;99.90
5796;DHT22;2924;51.458;7.046;2022-08-16T07:05:52;25.40;99.90
5796;DHT22;2924;51.458;7.046;2022-08-16T07:08:18;26.00;99.90
5796;DHT22;2924;51.458;7.046;2022-08-16T07:10:44;26.60;99.90
5796;DHT22;2924;51.458;7.046;2022-08-16T07:13:09;27.10;99.90
5796;DHT22;2924;51.458;7.046;2022-08-16T07:15:35;27.80;99.80
5796;DHT22;2924;51.458;7.046;2022-08-16T07:18:01;28.40;98.80
5796;DHT22;2924;51.458;7.046;2022-08-16T07:20:27;28.70;97.50
5796;DHT22;2924;51.458;7.046;2022-08-16T07:22:53;28.50;97.70
5796;DHT22;2924;51.458;7.046;2022-08-16T07:25:21;28.80;97.40
5796;DHT22;2924;51.458;7.046;2022-08-16T07:27:47;29.00;96.90
5796;DHT22;2924;51.458;7.046;2022-08-16T07:30:15;29.20;96.60
5796;DHT22;2924;51.458;7.046;2022-08-16T07:32:41;29.00;96.30
5796;DHT22;2924;51.458;7.046;2022-08-16T07:35:07;28.50;96.90
5796;DHT22;2924;51.458;7.046;2022-08-16T07:37:33;29.00;96.80
5796;DHT22;2924;51.458;7.046;2022-08-16T07:39:59;29.30;96.20
5796;DHT22;2924;51.458;7.046;2022-08-16T07:42:26;29.50;95.90
5796;DHT22;2924;51.458;7.046;2022-08-16T07:44:51;29.60;95.80
5796;DHT22;2924;51.458;7.046;2022-08-16T07:47:17;30.00;95.60
5796;DHT22;2924;51.458;7.046;2022-08-16T07:49:43;30.00;95.30
5796;DHT22;2924;51.458;7.046;2022-08-16T07:52:08;30.20;94.70
5796;DHT22;2924;51.458;7.046;2022-08-16T07:54:34;29.90;94.80
5796;DHT22;2924;51.458;7.046;2022-08-16T07:57:00;30.00;94.90
5796;DHT22;2924;51.458;7.046;2022-08-16T07:59:25;30.70;94.40
5796;DHT22;2924;51.458;7.046;2022-08-16T08:01:52;31.00;93.90
5796;DHT22;2924;51.458;7.046;2022-08-16T08:04:19;31.10;93.70
5796;DHT22;2924;51.458;7.046;2022-08-16T08:06:44;31.60;93.50
5796;DHT22;2924;51.458;7.046;2022-08-16T08:09:10;31.90;93.00
5796;DHT22;2924;51.458;7.046;2022-08-16T08:11:36;31.50;92.30
5796;DHT22;2924;51.458;7.046;2022-08-16T08:14:03;31.30;92.90
5796;DHT22;2924;51.458;7.046;2022-08-16T08:16:30;31.40;92.60
5796;DHT22;2924;51.458;7.046;2022-08-16T08:18:57;31.70;92.10
5796;DHT22;2924;51.458;7.046;2022-08-16T08:21:24;32.10;92.00
5796;DHT22;2924;51.458;7.046;2022-08-16T08:23:51;31.50;91.90
5796;DHT22;2924;51.458;7.046;2022-08-16T08:26:17;31.10;92.70
5796;DHT22;2924;51.458;7.046;2022-08-16T08:28:44;31.60;92.60
5796;DHT22;2924;51.458;7.046;2022-08-16T08:31:10;32.30;92.00
5796;DHT22;2924;51.458;7.046;2022-08-16T08:33:36;33.30;91.30
5796;DHT22;2924;51.458;7.046;2022-08-16T08:36:05;34.40;90.60
5796;DHT22;2924;51.458;7.046;2022-08-16T08:38:33;34.50;89.90
5796;DHT22;2924;51.458;7.046;2022-08-16T08:40:59;34.60;89.70
5796;DHT22;2924;51.458;7.046;2022-08-16T08:43:25;34.80;89.00
5796;DHT22;2924;51.458;7.046;2022-08-16T08:45:52;34.50;88.50
5796;DHT22;2924;51.458;7.046;2022-08-16T08:48:20;33.70;88.90
5796;DHT22;2924;51.458;7.046;2022-08-16T08:50:45;33.60;89.40
5796;DHT22;2924;51.458;7.046;2022-08-16T08:53:11;33.90;89.00
5796;DHT22;2924;51.458;7.046;2022-08-16T08:55:37;34.10;88.50
5796;DHT22;2924;51.458;7.046;2022-08-16T08:58:02;34.40;88.60
5796;DHT22;2924;51.458;7.046;2022-08-16T09:00:28;34.30;88.00
5796;DHT22;2924;51.458;7.046;2022-08-16T09:02:54;34.40;88.20
5796;DHT22;2924;51.458;7.046;2022-08-16T09:05:22;34.40;88.00
5796;DHT22;2924;51.458;7.046;2022-08-16T09:07:50;34.80;87.30
5796;DHT22;2924;51.458;7.046;2022-08-16T09:10:16;35.30;86.70
5796;DHT22;2924;51.458;7.046;2022-08-16T09:12:42;36.10;85.40
5796;DHT22;2924;51.458;7.046;2022-08-16T09:15:09;36.40;84.00
5796;DHT22;2924;51.458;7.046;2022-08-16T09:17:35;37.10;83.00
5796;DHT22;2924;51.458;7.046;2022-08-16T09:20:02;37.10;82.10
5796;DHT22;2924;51.458;7.046;2022-08-16T09:22:28;36.80;83.00
5796;DHT22;2924;51.458;7.046;2022-08-16T09:24:54;36.60;82.70
5796;DHT22;2924;51.458;7.046;2022-08-16T09:27:21;37.00;82.00
5796;DHT22;2924;51.458;7.046;2022-08-16T09:29:47;37.30;81.80
5796;DHT22;2924;51.458;7.046;2022-08-16T09:32:12;37.30;80.40
5796;DHT22;2924;51.458;7.046;2022-08-16T09:34:38;37.00;80.80
5796;DHT22;2924;51.458;7.046;2022-08-16T09:37:04;36.30;80.60
5796;DHT22;2924;51.458;7.046;2022-08-16T09:39:30;35.90;81.10
5796;DHT22;2924;51.458;7.046;2022-08-16T09:41:55;36.10;81.80
5796;DHT22;2924;51.458;7.046;2022-08-16T09:44:25;36.50;80.60
5796;DHT22;2924;51.458;7.046;2022-08-16T09:46:53;37.00;79.60
5796;DHT22;2924;51.458;7.046;2022-08-16T09:49:19;37.50;79.20
5796;DHT22;2924;51.458;7.046;2022-08-16T09:51:46;38.10;78.50
5796;DHT22;2924;51.458;7.046;2022-08-16T09:54:12;38.30;78.10
5796;DHT22;2924;51.458;7.046;2022-08-16T09:56:39;38.60;77.00
5796;DHT22;2924;51.458;7.046;2022-08-16T09:59:07;38.30;77.00
5796;DHT22;2924;51.458;7.046;2022-08-16T10:01:34;38.20;77.20
5796;DHT22;2924;51.458;7.046;2022-08-16T10:04:00;38.40;77.20
5796;DHT22;2924;51.458;7.046;2022-08-16T10:06:26;38.70;76.40
5796;DHT22;2924;51.458;7.046;2022-08-16T10:08:52;38.50;76.30
5796;DHT22;2924;51.458;7.046;2022-08-16T10:11:19;37.30;77.20
5796;DHT22;2924;51.458;7.046;2022-08-16T10:14:03;37.10;76.30
5796;DHT22;2924;51.458;7.046;2022-08-16T10:16:29;36.60;77.20
5796;DHT22;2924;51.458;7.046;2022-08-16T10:18:55;36.40;77.60
5796;DHT22;2924;51.458;7.046;2022-08-16T10:21:21;36.00;78.20
5796;DHT22;2924;51.458;7.046;2022-08-16T10:23:47;36.10;78.30
5796;DHT22;2924;51.458;7.046;2022-08-16T10:26:14;35.60;77.10
5796;DHT22;2924;51.458;7.046;2022-08-16T10:28:40;35.40;78.60
5796;DHT22;2924;51.458;7.046;2022-08-16T10:31:08;34.80;79.00
5796;DHT22;2924;51.458;7.046;2022-08-16T10:33:34;34.20;79.50
5796;DHT22;2924;51.458;7.046;2022-08-16T10:36:02;34.40;79.30
5796;DHT22;2924;51.458;7.046;2022-08-16T10:38:31;34.50;78.90
5796;DHT22;2924;51.458;7.046;2022-08-16T10:40:57;34.90;79.50
5796;DHT22;2924;51.458;7.046;2022-08-16T10:43:22;35.10;78.70
5796;DHT22;2924;51.458;7.046;2022-08-16T10:45:48;34.60;77.40
5796;DHT22;2924;51.458;7.046;2022-08-16T10:48:16;34.20;78.30
5796;DHT22;2924;51.458;7.046;2022-08-16T10:50:42;34.30;78.80
5796;DHT22;2924;51.458;7.046;2022-08-16T10:53:08;35.00;78.40
5796;DHT22;2924;51.458;7.046;2022-08-16T10:55:40;35.10;77.80
5796;DHT22;2924;51.458;7.046;2022-08-16T10:58:08;34.80;78.60
5796;DHT22;2924;51.458;7.046;2022-08-16T11:00:36;35.00;77.40
5796;DHT22;2924;51.458;7.046;2022-08-16T11:03:04;34.60;78.10
5796;DHT22;2924;51.458;7.046;2022-08-16T11:05:34;33.70;78.70
5796;DHT22;2924;51.458;7.046;2022-08-16T11:08:00;33.60;79.00
5796;DHT22;2924;51.458;7.046;2022-08-16T11:10:30;34.10;78.80
5796;DHT22;2924;51.458;7.046;2022-08-16T11:12:56;34.60;79.00
5796;DHT22;2924;51.458;7.046;2022-08-16T11:15:22;35.50;78.10
5796;DHT22;2924;51.458;7.046;2022-08-16T11:17:50;35.90;77.40
5796;DHT22;2924;51.458;7.046;2022-08-16T11:20:17;36.40;77.20
5796;DHT22;2924;51.458;7.046;2022-08-16T11:22:45;36.30;76.70
5796;DHT22;2924;51.458;7.046;2022-08-16T11:25:13;36.00;76.30
5796;DHT22;2924;51.458;7.046;2022-08-16T11:27:39;36.00;75.90
5796;DHT22;2924;51.458;7.046;2022-08-16T11:30:08;36.30;75.30
5796;DHT22;2924;51.458;7.046;2022-08-16T11:32:35;36.70;74.90
5796;DHT22;2924;51.458;7.046;2022-08-16T11:35:07;36.70;72.70
5796;DHT22;2924;51.458;7.046;2022-08-16T11:37:33;36.30;73.20
5796;DHT22;2924;51.458;7.046;2022-08-16T11:40:00;36.10;73.90
5796;DHT22;2924;51.458;7.046;2022-08-16T11:42:26;36.40;73.10
5796;DHT22;2924;51.458;7.046;2022-08-16T11:44:51;36.60;73.10
5796;DHT22;2924;51.458;7.046;2022-08-16T11:47:17;36.60;72.90
5796;DHT22;2924;51.458;7.046;2022-08-16T11:49:43;36.10;73.30
5796;DHT22;2924;51.458;7.046;2022-08-16T11:52:10;35.50;74.10
5796;DHT22;2924;51.458;7.046;2022-08-16T11:54:36;35.60;74.10
5796;DHT22;2924;51.458;7.046;2022-08-16T11:57:02;35.60;73.10
5796;DHT22;2924;51.458;7.046;2022-08-16T11:59:28;35.60;73.50
5796;DHT22;2924;51.458;7.046;2022-08-16T12:01:57;35.50;72.50
5796;DHT22;2924;51.458;7.046;2022-08-16T12:04:23;35.40;73.40
5796;DHT22;2924;51.458;7.046;2022-08-16T12:06:50;35.70;72.20
5796;DHT22;2924;51.458;7.046;2022-08-16T12:09:16;35.70;72.90
5796;DHT22;2924;51.458;7.046;2022-08-16T12:11:42;35.80;72.60
5796;DHT22;2924;51.458;7.046;2022-08-16T12:14:09;35.90;73.00
5796;DHT22;2924;51.458;7.046;2022-08-16T12:16:36;36.10;72.00
5796;DHT22;2924;51.458;7.046;2022-08-16T12:19:06;36.20;71.60
5796;DHT22;2924;51.458;7.046;2022-08-16T12:21:32;36.20;72.00
5796;DHT22;2924;51.458;7.046;2022-08-16T12:23:58;36.10;72.00
5796;DHT22;2924;51.458;7.046;2022-08-16T12:26:24;35.80;72.10
5796;DHT22;2924;51.458;7.046;2022-08-16T12:28:49;35.90;72.30
5796;DHT22;2924;51.458;7.046;2022-08-16T12:31:18;36.20;72.60
5796;DHT22;2924;51.458;7.046;2022-08-16T12:33:44;36.60;72.50
5796;DHT22;2924;51.458;7.046;2022-08-16T12:36:10;36.90;70.10
5796;DHT22;2924;51.458;7.046;2022-08-16T12:38:36;36.90;70.30
5796;DHT22;2924;51.458;7.046;2022-08-16T12:41:02;36.00;70.70
5796;DHT22;2924;51.458;7.046;2022-08-16T12:43:28;35.70;72.10
5796;DHT22;2924;51.458;7.046;2022-08-16T12:45:55;35.90;71.80
5796;DHT22;2924;51.458;7.046;2022-08-16T12:48:25;35.90;71.70
5796;DHT22;2924;51.458;7.046;2022-08-16T12:51:12;35.80;71.90
5796;DHT22;2924;51.458;7.046;2022-08-16T12:53:39;35.90;72.60
5796;DHT22;2924;51.458;7.046;2022-08-16T12:56:06;36.30;72.60
5796;DHT22;2924;51.458;7.046;2022-08-16T12:58:32;36.40;72.50
5796;DHT22;2924;51.458;7.046;2022-08-16T13:00:58;36.10;71.80
5796;DHT22;2924;51.458;7.046;2022-08-16T13:03:24;35.80;72.40
5796;DHT22;2924;51.458;7.046;2022-08-16T13:05:51;35.30;72.60
5796;DHT22;2924;51.458;7.046;2022-08-16T13:08:18;34.80;73.10
5796;DHT22;2924;51.458;7.046;2022-08-16T13:10:46;34.30;73.20
5796;DHT22;2924;51.458;7.046;2022-08-16T13:13:15;34.00;73.50
5796;DHT22;2924;51.458;7.046;2022-08-16T13:15:50;33.80;73.90
5796;DHT22;2924;51.458;7.046;2022-08-16T13:18:16;33.50;74.00
5796;DHT22;2924;51.458;7.046;2022-08-16T13:20:42;33.30;74.80
5796;DHT22;2924;51.458;7.046;2022-08-16T13:23:09;33.20;75.30
5796;DHT22;2924;51.458;7.046;2022-08-16T13:25:38;33.50;74.30
5796;DHT22;2924;51.458;7.046;2022-08-16T13:28:05;33.70;74.80
5796;DHT22;2924;51.458;7.046;2022-08-16T13:30:40;34.20;74.60
5796;DHT22;2924;51.458;7.046;2022-08-16T13:33:08;34.50;74.40
5796;DHT22;2924;51.458;7.046;2022-08-16T13:35:34;34.90;73.50
5796;DHT22;2924;51.458;7.046;2022-08-16T13:38:00;35.20;73.90
5796;DHT22;2924;51.458;7.046;2022-08-16T13:40:26;35.50;73.70
5796;DHT22;2924;51.458;7.046;2022-08-16T13:42:52;35.90;73.10
5796;DHT22;2924;51.458;7.046;2022-08-16T13:45:18;36.00;72.80
5796;DHT22;2924;51.458;7.046;2022-08-16T13:47:44;35.80;73.70
5796;DHT22;2924;51.458;7.046;2022-08-16T13:50:10;35.60;73.40
5796;DHT22;2924;51.458;7.046;2022-08-16T13:52:38;35.50;73.80
5796;DHT22;2924;51.458;7.046;2022-08-16T13:55:04;35.60;73.80
5796;DHT22;2924;51.458;7.046;2022-08-16T13:57:30;35.70;73.70
5796;DHT22;2924;51.458;7.046;2022-08-16T13:59:55;35.40;74.30
5796;DHT22;2924;51.458;7.046;2022-08-16T14:02:21;35.00;74.70
5796;DHT22;2924;51.458;7.046;2022-08-16T14:04:47;34.70;74.60
5796;DHT22;2924;51.458;7.046;2022-08-16T14:07:14;34.40;74.80
5796;DHT22;2924;51.458;7.046;2022-08-16T14:09:40;34.10;74.80
5796;DHT22;2924;51.458;7.046;2022-08-16T14:12:19;33.70;74.80
5796;DHT22;2924;51.458;7.046;2022-08-16T14:14:46;33.50;75.10
5796;DHT22;2924;51.458;7.046;2022-08-16T14:17:12;33.30;75.20
5796;DHT22;2924;51.458;7.046;2022-08-16T14:19:38;33.10;75.40
5796;DHT22;2924;51.458;7.046;2022-08-16T14:22:03;32.80;75.90
5796;DHT22;2924;51.458;7.046;2022-08-16T14:24:29;32.70;76.50
5796;DHT22;2924;51.458;7.046;2022-08-16T14:26:55;32.70;76.50
5796;DHT22;2924;51.458;7.046;2022-08-16T14:29:21;32.60;76.90
5796;DHT22;2924;51.458;7.046;2022-08-16T14:31:47;32.30;76.00
5796;DHT22;2924;51.458;7.046;2022-08-16T14:34:13;32.30;76.30
5796;DHT22;2924;51.458;7.046;2022-08-16T14:36:39;32.30;76.50
5796;DHT22;2924;51.458;7.046;2022-08-16T14:39:05;32.50;75.80
5796;DHT22;2924;51.458;7.046;2022-08-16T14:41:30;32.60;75.50
5796;DHT22;2924;51.458;7.046;2022-08-16T14:43:56;32.60;75.80
5796;DHT22;2924;51.458;7.046;2022-08-16T14:46:22;32.60;75.30
5796;DHT22;2924;51.458;7.046;2022-08-16T14:48:48;32.50;76.20
5796;DHT22;2924;51.458;7.046;2022-08-16T14:51:14;32.50;76.10
5796;DHT22;2924;51.458;7.046;2022-08-16T14:53:40;32.40;75.60
5796;DHT22;2924;51.458;7.046;2022-08-16T14:56:06;32.60;75.90
5796;DHT22;2924;51.458;7.046;2022-08-16T14:58:32;33.00;75.90
5796;DHT22;2924;51.458;7.046;2022-08-16T15:00:58;33.70;75.60
5796;DHT22;2924;51.458;7.046;2022-08-16T15:03:26;34.30;74.80
5796;DHT22;2924;51.458;7.046;2022-08-16T15:05:52;34.50;73.90
5796;DHT22;2924;51.458;7.046;2022-08-16T15:08:18;34.60;73.70
5796;DHT22;2924;51.458;7.046;2022-08-16T15:10:44;34.60;73.80
5796;DHT22;2924;51.458;7.046;2022-08-16T15:13:11;34.90;74.00
5796;DHT22;2924;51.458;7.046;2022-08-16T15:15:37;34.90;73.50
5796;DHT22;2924;51.458;7.046;2022-08-16T15:18:03;34.60;73.90
5796;DHT22;2924;51.458;7.046;2022-08-16T15:20:34;34.20;73.60
5796;DHT22;2924;51.458;7.046;2022-08-16T15:23:02;33.50;73.80
5796;DHT22;2924;51.458;7.046;2022-08-16T15:25:36;32.60;74.40
5796;DHT22;2924;51.458;7.046;2022-08-16T15:28:04;32.40;75.00
5796;DHT22;2924;51.458;7.046;2022-08-16T15:30:31;32.30;75.60
5796;DHT22;2924;51.458;7.046;2022-08-16T15:33:04;32.40;75.90
5796;DHT22;2924;51.458;7.046;2022-08-16T15:35:30;32.60;75.50
5796;DHT22;2924;51.458;7.046;2022-08-16T15:37:58;32.90;75.50
5796;DHT22;2924;51.458;7.046;2022-08-16T15:40:23;33.30;74.80
5796;DHT22;2924;51.458;7.046;2022-08-16T15:42:53;33.80;74.90
5796;DHT22;2924;51.458;7.046;2022-08-16T15:45:21;34.30;74.00
5796;DHT22;2924;51.458;7.046;2022-08-16T15:48:06;34.40;73.70
5796;DHT22;2924;51.458;7.046;2022-08-16T15:50:34;34.70;73.50
5796;DHT22;2924;51.458;7.046;2022-08-16T15:53:03;34.50;72.90
5796;DHT22;2924;51.458;7.046;2022-08-16T15:55:29;34.10;73.40
5796;DHT22;2924;51.458;7.046;2022-08-16T15:57:54;33.50;73.40
5796;DHT22;2924;51.458;7.046;2022-08-16T16:00:23;33.10;74.10